createdAt,value
2023-02-03T00:00:44.338Z,72.49
2023-02-03T00:03:13.137Z,73.33
2023-02-03T00:05:42.928Z,72.61
2023-02-03T00:08:12.206Z,72.53
2023-02-03T00:10:41.491Z,72.59
2023-02-03T00:13:10.565Z,72.13
2023-02-03T00:15:39.380Z,72.42
2023-02-03T00:18:08.233Z,72.22
2023-02-03T00:20:36.910Z,73.25
2023-02-03T00:23:10.946Z,73.35
2023-02-03T00:25:40.043Z,72.63
2023-02-03T00:28:09.965Z,72.59
2023-02-03T00:30:39.354Z,72.69
2023-02-03T00:33:07.973Z,72.41
2023-02-03T00:35:40.679Z,72.89
2023-02-03T00:38:09.453Z,72.70
2023-02-03T00:40:38.161Z,72.75
2023-02-03T00:43:07.043Z,72.99
2023-02-03T00:45:35.868Z,72.96
2023-02-03T00:48:05.721Z,73.08
2023-02-03T00:50:34.542Z,72.60
2023-02-03T00:53:03.529Z,73.19
2023-02-03T00:55:32.261Z,72.83
2023-02-03T00:58:00.946Z,72.80
2023-02-03T01:00:29.642Z,72.88
2023-02-03T01:02:58.404Z,72.69
2023-02-03T01:05:29.500Z,72.88
2023-02-03T01:08:02.046Z,72.75
2023-02-03T01:10:31.484Z,72.42
2023-02-03T01:13:00.421Z,72.15
2023-02-03T01:15:29.641Z,72.21
2023-02-03T01:17:59.043Z,71.97
2023-02-03T01:20:28.041Z,72.33
2023-02-03T01:22:56.941Z,72.30
2023-02-03T01:25:25.760Z,72.27
2023-02-03T01:27:54.456Z,72.04
2023-02-03T01:30:25.860Z,71.87
2023-02-03T01:32:54.806Z,71.90
2023-02-03T01:35:26.006Z,72.04
2023-02-03T01:37:54.873Z,72.18
2023-02-03T01:40:23.552Z,72.67
2023-02-03T01:42:52.507Z,73.01
2023-02-03T01:45:21.260Z,72.75
2023-02-03T01:47:55.561Z,72.60
2023-02-03T01:50:28.262Z,72.03
2023-02-03T01:53:07.082Z,71.98
2023-02-03T01:55:39.541Z,72.11
2023-02-03T01:58:21.962Z,72.20
2023-02-03T02:00:51.413Z,72.29
2023-02-03T02:03:23.644Z,72.00
2023-02-03T02:05:59.928Z,71.91
2023-02-03T02:08:29.341Z,71.99
2023-02-03T02:11:01.328Z,71.95
2023-02-03T02:13:35.994Z,72.33
2023-02-03T02:16:11.943Z,72.31
2023-02-03T02:18:46.625Z,72.13
2023-02-03T02:21:53.987Z,71.97
2023-02-03T02:24:56.542Z,72.08
2023-02-03T02:27:25.121Z,72.34
2023-02-03T02:30:36.213Z,71.90
2023-02-03T02:33:40.259Z,72.18
2023-02-03T02:36:19.742Z,72.42
2023-02-03T02:39:00.623Z,72.98
2023-02-03T02:41:40.747Z,72.51
2023-02-03T02:44:19.037Z,72.31
2023-02-03T02:46:53.202Z,72.16
2023-02-03T02:50:02.204Z,72.16
2023-02-03T02:52:33.660Z,72.30
2023-02-03T02:55:15.421Z,72.24
2023-02-03T02:57:46.639Z,72.64
2023-02-03T03:00:16.080Z,72.53
2023-02-03T03:02:44.915Z,72.70
2023-02-03T03:05:14.131Z,72.80
2023-02-03T03:07:57.445Z,72.91
2023-02-03T03:10:31.340Z,72.78
2023-02-03T03:13:15.302Z,72.42
2023-02-03T03:15:46.144Z,72.24
2023-02-03T03:18:20.399Z,71.84
2023-02-03T03:20:53.062Z,72.43
2023-02-03T03:23:31.061Z,72.25
2023-02-03T03:26:21.342Z,72.15
2023-02-03T03:29:42.147Z,72.25
2023-02-03T03:32:11.724Z,72.72
2023-02-03T03:34:41.285Z,72.76
2023-02-03T03:37:28.231Z,73.11
2023-02-03T03:40:02.185Z,72.97
2023-02-03T03:43:10.502Z,72.41
2023-02-03T03:45:50.181Z,72.08
2023-02-03T03:48:18.901Z,72.22
2023-02-03T03:50:54.283Z,72.20
2023-02-03T03:53:24.991Z,72.74
2023-02-03T03:55:55.945Z,72.66
2023-02-03T03:58:30.624Z,72.43
2023-02-03T04:01:03.881Z,72.56
2023-02-03T04:03:54.802Z,72.22
2023-02-03T04:06:23.620Z,72.84
2023-02-03T04:08:52.389Z,72.85
2023-02-03T04:11:39.843Z,73.79
2023-02-03T04:14:08.463Z,73.00
2023-02-03T04:16:37.425Z,73.34
2023-02-03T04:19:08.327Z,72.82
2023-02-03T04:21:37.287Z,73.28
2023-02-03T04:24:06.345Z,73.28
2023-02-03T04:26:35.242Z,73.42
2023-02-03T04:29:04.341Z,73.58
2023-02-03T04:31:36.249Z,73.22
2023-02-03T04:34:05.161Z,73.29
2023-02-03T04:36:33.944Z,73.37
2023-02-03T04:39:03.026Z,73.82
2023-02-03T04:41:31.707Z,74.06
2023-02-03T04:44:00.518Z,73.85
2023-02-03T04:46:29.465Z,73.73
2023-02-03T04:48:58.707Z,73.42
2023-02-03T04:51:27.501Z,74.16
2023-02-03T04:53:56.161Z,73.64
2023-02-03T04:56:25.042Z,74.48
2023-02-03T04:58:53.881Z,74.62
2023-02-03T05:01:22.867Z,74.45
2023-02-03T05:03:53.968Z,74.38
2023-02-03T05:06:27.383Z,74.23
2023-02-03T05:08:56.162Z,74.15
2023-02-03T05:11:27.683Z,74.41
2023-02-03T05:13:59.223Z,74.30
2023-02-03T05:16:31.321Z,74.53
2023-02-03T05:19:00.107Z,75.08
2023-02-03T05:21:28.763Z,74.66
2023-02-03T05:23:57.585Z,74.70
2023-02-03T05:26:26.301Z,74.35
2023-02-03T05:28:56.676Z,74.90
2023-02-03T05:31:26.651Z,74.01
2023-02-03T05:33:55.499Z,74.33
2023-02-03T05:36:24.347Z,74.29
2023-02-03T05:38:53.102Z,74.31
2023-02-03T05:41:40.484Z,73.95
2023-02-03T05:44:09.360Z,73.75
2023-02-03T05:46:37.991Z,74.12
2023-02-03T05:49:06.719Z,74.18
2023-02-03T05:51:36.680Z,72.86
2023-02-03T05:54:05.742Z,73.91
2023-02-03T05:56:34.854Z,73.27
2023-02-03T05:59:03.761Z,73.17
2023-02-03T06:01:33.787Z,73.57
2023-02-03T06:04:03.481Z,73.20
2023-02-03T06:06:36.060Z,72.95
2023-02-03T06:09:09.583Z,73.77
2023-02-03T06:11:38.303Z,73.45
2023-02-03T06:14:07.521Z,72.88
2023-02-03T06:16:36.420Z,73.44
2023-02-03T06:19:09.624Z,73.15
2023-02-03T06:21:38.441Z,73.01
2023-02-03T06:24:07.745Z,72.96
2023-02-03T06:26:36.361Z,72.61
2023-02-03T06:29:05.260Z,72.95
2023-02-03T06:31:36.584Z,72.19
2023-02-03T06:34:05.762Z,72.24
2023-02-03T06:36:34.452Z,71.82
2023-02-03T06:39:05.622Z,71.88
2023-02-03T06:41:34.269Z,72.00
2023-02-03T06:44:03.196Z,71.97
2023-02-03T06:46:33.101Z,71.98
2023-02-03T06:49:01.969Z,72.38
2023-02-03T06:51:30.621Z,71.58
2023-02-03T06:54:04.289Z,72.21
2023-02-03T06:56:33.037Z,72.12
2023-02-03T06:59:02.127Z,71.68
2023-02-03T07:01:31.764Z,72.16
2023-02-03T07:04:00.389Z,71.74
2023-02-03T07:06:33.241Z,71.06
2023-02-03T07:09:07.541Z,71.22
2023-02-03T07:11:36.503Z,71.31
2023-02-03T07:14:05.520Z,71.99
2023-02-03T07:16:35.022Z,70.75
2023-02-03T07:19:04.874Z,71.09
2023-02-03T07:21:34.116Z,69.84
2023-02-03T07:24:03.950Z,69.83
2023-02-03T07:26:32.624Z,69.30
2023-02-03T07:29:01.920Z,68.99
2023-02-03T07:31:31.446Z,68.72
2023-02-03T07:34:01.727Z,68.64
2023-02-03T07:36:30.394Z,68.58
2023-02-03T07:38:59.084Z,68.06
2023-02-03T07:41:28.448Z,66.86
2023-02-03T07:43:57.264Z,67.22
2023-02-03T07:46:26.271Z,66.05
2023-02-03T07:48:55.441Z,65.87
2023-02-03T07:51:24.815Z,65.42
2023-02-03T07:53:53.263Z,65.68
2023-02-03T07:56:22.221Z,65.76
2023-02-03T07:58:54.025Z,64.91
2023-02-03T08:01:23.333Z,63.90
2023-02-03T08:03:54.873Z,63.92
2023-02-03T08:06:24.144Z,63.70
2023-02-03T08:08:54.856Z,64.02
2023-02-03T08:11:23.764Z,63.69
2023-02-03T08:13:52.501Z,63.34
2023-02-03T08:16:21.479Z,63.29
2023-02-03T08:18:50.220Z,63.22
2023-02-03T08:21:19.106Z,63.53
2023-02-03T08:23:48.067Z,63.76
2023-02-03T08:26:17.320Z,63.14
2023-02-03T08:28:50.950Z,63.51
2023-02-03T08:31:22.527Z,63.46
2023-02-03T08:33:51.633Z,63.30
2023-02-03T08:36:20.411Z,62.87
2023-02-03T08:38:49.227Z,62.72
2023-02-03T08:41:19.201Z,63.32
2023-02-03T08:43:47.893Z,63.07
2023-02-03T08:46:16.672Z,63.28
2023-02-03T08:48:45.741Z,62.67
2023-02-03T08:51:17.099Z,62.97
2023-02-03T08:53:46.237Z,63.88
2023-02-03T08:56:15.108Z,63.44
2023-02-03T08:58:43.878Z,63.00
2023-02-03T09:01:16.858Z,62.77
2023-02-03T09:03:45.778Z,62.71
2023-02-03T09:06:17.246Z,62.75
2023-02-03T09:08:47.511Z,63.10
2023-02-03T09:11:18.309Z,62.38
2023-02-03T09:13:47.063Z,62.28
2023-02-03T09:16:18.643Z,62.33
2023-02-03T09:18:47.977Z,62.09
2023-02-03T09:21:31.744Z,63.02
2023-02-03T09:24:06.440Z,62.27
2023-02-03T09:26:35.109Z,62.88
2023-02-03T09:29:03.930Z,62.17
2023-02-03T09:31:34.524Z,63.32
2023-02-03T09:34:10.553Z,62.51
2023-02-03T09:36:50.698Z,62.54
2023-02-03T09:39:24.035Z,63.26
2023-02-03T09:42:02.007Z,62.64
2023-02-03T09:44:41.340Z,62.08
2023-02-03T09:47:38.377Z,63.27
2023-02-03T09:50:16.453Z,62.89
2023-02-03T09:52:45.235Z,62.50
2023-02-03T09:55:38.370Z,61.69
2023-02-03T09:58:14.517Z,62.16
2023-02-03T10:00:52.989Z,61.87
2023-02-03T10:03:51.123Z,62.75
2023-02-03T10:06:23.720Z,62.13
2023-02-03T10:09:18.931Z,63.61
2023-02-03T10:12:06.135Z,62.84
2023-02-03T10:14:53.750Z,63.32
2023-02-03T10:17:31.073Z,63.68
2023-02-03T10:20:40.413Z,63.01
2023-02-03T10:23:17.748Z,63.78
2023-02-03T10:25:58.032Z,64.41
2023-02-03T10:28:35.988Z,64.14
2023-02-03T10:31:14.618Z,63.96
2023-02-03T10:33:43.409Z,64.35
2023-02-03T10:36:23.567Z,64.83
2023-02-03T10:39:02.507Z,64.33
2023-02-03T10:41:33.559Z,63.92
2023-02-03T10:44:09.510Z,63.61
2023-02-03T10:46:42.690Z,63.76
2023-02-03T10:49:14.154Z,63.39
2023-02-03T10:51:51.706Z,62.98
2023-02-03T10:54:35.156Z,63.44
2023-02-03T10:57:23.397Z,64.37
2023-02-03T10:59:52.437Z,64.17
2023-02-03T11:02:29.550Z,63.45
2023-02-03T11:05:18.547Z,64.11
2023-02-03T11:07:50.411Z,64.75
2023-02-03T11:10:36.607Z,64.72
2023-02-03T11:13:13.928Z,65.07
2023-02-03T11:16:02.494Z,64.58
2023-02-03T11:18:48.094Z,65.39
2023-02-03T11:21:31.119Z,65.09
2023-02-03T11:24:10.314Z,65.69
2023-02-03T11:26:46.547Z,65.49
2023-02-03T11:29:26.893Z,65.83
2023-02-03T11:31:58.614Z,65.94
2023-02-03T11:34:40.328Z,65.85
2023-02-03T11:37:27.727Z,66.34
2023-02-03T11:40:22.307Z,65.61
2023-02-03T11:42:51.143Z,66.14
2023-02-03T11:45:49.815Z,66.24
2023-02-03T11:48:31.870Z,66.87
2023-02-03T11:51:05.108Z,65.95
2023-02-03T11:54:03.901Z,66.77
2023-02-03T11:57:19.472Z,66.47
2023-02-03T12:00:07.144Z,67.51
2023-02-03T12:02:52.992Z,66.30
2023-02-03T12:05:28.030Z,67.07
2023-02-03T12:08:11.860Z,67.14
2023-02-03T12:11:07.125Z,67.34
2023-02-03T12:14:00.229Z,67.22
2023-02-03T12:16:44.086Z,67.28
2023-02-03T12:19:28.563Z,66.99
2023-02-03T12:22:12.180Z,67.68
2023-02-03T12:24:56.336Z,67.29
2023-02-03T12:27:47.793Z,67.88
2023-02-03T12:30:27.137Z,67.08
2023-02-03T12:33:20.925Z,67.26
2023-02-03T12:36:08.002Z,67.64
2023-02-03T12:39:01.624Z,67.39
2023-02-03T12:41:43.382Z,67.71
2023-02-03T12:44:27.683Z,67.30
2023-02-03T12:47:09.049Z,67.91
2023-02-03T12:49:59.182Z,68.10
2023-02-03T12:52:40.086Z,67.92
2023-02-03T12:55:56.738Z,67.95
2023-02-03T12:58:34.761Z,68.39
2023-02-03T13:01:13.678Z,67.24
2023-02-03T13:04:11.997Z,67.60
2023-02-03T13:07:08.280Z,66.95
2023-02-03T13:09:54.671Z,67.90
2023-02-03T13:12:41.918Z,68.57
2023-02-03T13:15:22.885Z,67.00
2023-02-03T13:17:57.923Z,67.16
2023-02-03T13:20:35.277Z,68.07
2023-02-03T13:23:13.139Z,67.98
2023-02-03T13:26:19.511Z,68.28
2023-02-03T13:32:19.387Z,67.74
2023-02-03T13:35:21.670Z,68.08
2023-02-03T13:38:12.964Z,68.45
2023-02-03T13:41:34.002Z,68.14
2023-02-03T13:44:04.186Z,67.66
2023-02-03T13:46:36.743Z,68.41
2023-02-03T13:49:09.565Z,67.66
2023-02-03T13:51:46.949Z,67.75
2023-02-03T13:54:32.901Z,68.22
2023-02-03T13:57:04.285Z,68.83
2023-02-03T13:59:39.685Z,68.25
2023-02-03T14:02:20.580Z,67.94
2023-02-03T14:04:50.856Z,68.08
2023-02-03T14:07:41.161Z,68.70
2023-02-03T14:10:16.280Z,67.87
2023-02-03T14:12:53.273Z,68.58
2023-02-03T14:15:34.179Z,68.65
2023-02-03T14:18:25.735Z,68.62
2023-02-03T14:21:11.248Z,68.56
2023-02-03T14:23:44.641Z,68.57
2023-02-03T14:26:24.623Z,68.58
2023-02-03T14:28:54.028Z,68.52
2023-02-03T14:31:29.238Z,69.04
2023-02-03T14:34:16.459Z,68.39
2023-02-03T14:36:45.282Z,68.82
2023-02-03T14:39:20.721Z,69.20
2023-02-03T14:42:01.823Z,68.69
2023-02-03T14:44:54.076Z,68.62
2023-02-03T14:47:35.160Z,68.63
2023-02-03T14:50:43.689Z,68.57
2023-02-03T14:53:27.352Z,68.00
2023-02-03T14:56:04.988Z,69.05
2023-02-03T14:58:43.848Z,68.38
2023-02-03T15:01:50.777Z,68.13
2023-02-03T15:04:20.451Z,68.41
2023-02-03T15:06:51.818Z,68.31
2023-02-03T15:09:25.986Z,68.63
2023-02-03T15:11:55.069Z,68.51
2023-02-03T15:14:27.286Z,68.42
2023-02-03T15:17:04.849Z,68.56
2023-02-03T15:19:41.222Z,68.55
2023-02-03T15:22:29.827Z,68.31
2023-02-03T15:25:05.127Z,69.04
2023-02-03T15:27:34.287Z,68.67
2023-02-03T15:30:36.688Z,68.69
2023-02-03T15:33:24.838Z,68.98
2023-02-03T15:36:00.969Z,69.35
2023-02-03T15:38:41.838Z,69.22
2023-02-03T15:41:23.244Z,69.56
2023-02-03T15:44:02.319Z,68.83
2023-02-03T15:46:44.199Z,69.00
2023-02-03T15:49:24.524Z,69.58
2023-02-03T15:52:03.515Z,69.70
2023-02-03T15:54:41.570Z,68.92
2023-02-03T15:57:28.951Z,69.27
2023-02-03T16:00:09.548Z,69.25
2023-02-03T16:02:46.605Z,69.29
2023-02-03T16:05:38.121Z,70.65
2023-02-03T16:08:46.779Z,70.52
2023-02-03T16:11:34.859Z,70.43
2023-02-03T16:14:32.419Z,70.30
2023-02-03T16:17:05.432Z,70.67
2023-02-03T16:19:38.733Z,70.65
2023-02-03T16:22:32.978Z,71.04
2023-02-03T16:25:16.246Z,70.35
2023-02-03T16:27:48.337Z,71.02
2023-02-03T16:30:43.983Z,70.81
2023-02-03T16:33:34.537Z,70.29
2023-02-03T16:36:32.435Z,70.61
2023-02-03T16:39:22.639Z,70.20
2023-02-03T16:42:09.578Z,70.56
2023-02-03T16:44:56.872Z,71.50
2023-02-03T16:47:52.258Z,71.00
2023-02-03T16:50:42.198Z,71.17
2023-02-03T16:53:20.415Z,70.24
2023-02-03T16:55:50.126Z,70.91
2023-02-03T16:58:19.598Z,70.57
2023-02-03T17:00:52.238Z,70.81
2023-02-03T17:03:24.702Z,70.76
2023-02-03T17:05:54.251Z,71.42
2023-02-03T17:08:26.366Z,70.91
2023-02-03T17:10:55.253Z,70.39
2023-02-03T17:13:25.173Z,70.89
2023-02-03T17:15:54.593Z,71.78
2023-02-03T17:18:23.854Z,71.12
2023-02-03T17:20:54.100Z,71.52
2023-02-03T17:23:22.776Z,70.54
2023-02-03T17:25:51.594Z,71.38
2023-02-03T17:28:20.496Z,70.86
2023-02-03T17:30:57.777Z,71.53
2023-02-03T17:33:27.430Z,71.51
2023-02-03T17:36:08.261Z,71.64
2023-02-03T17:55:21.223Z,71.36
2023-02-03T17:57:49.747Z,71.38
2023-02-03T18:00:18.762Z,71.90
2023-02-03T18:02:51.804Z,70.86
2023-02-03T18:05:20.683Z,71.37
2023-02-03T18:07:50.438Z,70.95
2023-02-03T18:10:19.452Z,71.97
2023-02-03T18:12:48.065Z,71.15
2023-02-03T18:15:17.252Z,71.17
2023-02-03T18:17:46.862Z,71.11
2023-02-03T18:20:15.711Z,72.53
2023-02-03T18:22:45.669Z,72.30
2023-02-03T18:25:17.976Z,71.28
2023-02-03T18:27:46.552Z,72.39
2023-02-03T18:30:15.956Z,71.08
2023-02-03T18:32:44.730Z,72.01
2023-02-03T18:35:17.485Z,71.72
2023-02-03T18:37:46.457Z,71.22
2023-02-03T18:40:15.257Z,71.79
2023-02-03T18:42:43.871Z,71.37
2023-02-03T18:45:12.878Z,72.49
2023-02-03T18:47:41.766Z,72.83
2023-02-03T18:50:11.644Z,72.45
2023-02-03T18:52:40.417Z,71.64
2023-02-03T18:55:09.987Z,71.92
2023-02-03T18:57:38.942Z,72.41
2023-02-03T19:00:08.258Z,72.82
2023-02-03T19:02:37.093Z,72.78
2023-02-03T19:05:06.527Z,72.88
2023-02-03T19:07:35.500Z,72.21
2023-02-03T19:10:04.962Z,72.16
2023-02-03T19:12:33.896Z,72.14
2023-02-03T19:15:03.265Z,72.83
2023-02-03T19:17:32.099Z,72.47
2023-02-03T19:20:00.831Z,72.47
2023-02-03T19:22:30.454Z,72.44
2023-02-03T19:24:59.748Z,73.25
2023-02-03T19:27:28.396Z,73.04
2023-02-03T19:29:56.994Z,73.55
2023-02-03T19:32:25.728Z,72.61
2023-02-03T19:34:54.401Z,73.38
2023-02-03T19:37:23.058Z,73.37
2023-02-03T19:39:52.338Z,73.46
2023-02-03T19:42:21.154Z,72.83
2023-02-03T19:44:51.737Z,73.45
2023-02-03T19:47:20.224Z,73.73
2023-02-03T19:49:48.913Z,73.89
2023-02-03T19:52:17.660Z,73.55
2023-02-03T19:54:46.244Z,74.11
2023-02-03T19:57:15.014Z,73.75
2023-02-03T19:59:43.665Z,73.37
2023-02-03T20:02:14.885Z,72.65
2023-02-03T20:04:44.804Z,74.02
2023-02-03T20:07:14.495Z,73.59
2023-02-03T20:09:43.963Z,73.74
2023-02-03T20:12:12.931Z,73.76
2023-02-03T20:14:41.450Z,73.68
2023-02-03T20:17:10.113Z,74.03
2023-02-03T20:19:38.702Z,73.97
2023-02-03T20:22:07.164Z,73.32
2023-02-03T20:24:35.690Z,73.69
2023-02-03T20:27:04.561Z,73.10
2023-02-03T20:29:33.587Z,74.09
2023-02-03T20:32:02.333Z,73.29
2023-02-03T20:34:31.202Z,73.93
2023-02-03T20:37:01.705Z,74.30
2023-02-03T20:39:30.351Z,73.06
2023-02-03T20:41:59.084Z,73.06
2023-02-03T20:44:27.690Z,73.26
2023-02-03T20:46:56.595Z,73.25
2023-02-03T20:49:25.670Z,74.13
2023-02-03T20:51:54.520Z,73.40
2023-02-03T20:54:23.922Z,73.28
2023-02-03T20:56:52.599Z,73.79
2023-02-03T20:59:21.305Z,73.72
2023-02-03T21:01:51.343Z,74.35
2023-02-03T21:04:38.850Z,74.04
2023-02-03T21:07:15.066Z,74.18
2023-02-03T21:09:43.589Z,74.63
2023-02-03T21:12:15.862Z,73.83
2023-02-03T21:14:49.512Z,73.93
2023-02-03T21:17:22.638Z,73.67
2023-02-03T21:19:52.871Z,74.12
2023-02-03T21:22:27.187Z,74.54
2023-02-03T21:25:00.856Z,74.42
2023-02-03T21:27:32.654Z,75.08
2023-02-03T21:30:25.340Z,74.13
2023-02-03T21:32:54.073Z,74.22
2023-02-03T21:35:27.250Z,73.98
2023-02-03T21:38:02.423Z,74.03
2023-02-03T21:40:33.428Z,74.33
2023-02-03T21:43:05.570Z,74.49
2023-02-03T21:45:43.196Z,74.64
2023-02-03T21:48:33.357Z,74.49
2023-02-03T21:51:05.951Z,74.32
2023-02-03T21:53:36.287Z,74.79
2023-02-03T21:56:37.230Z,74.44
2023-02-03T21:59:30.010Z,75.63
2023-02-03T22:02:27.775Z,74.83
2023-02-03T22:05:09.449Z,74.33
2023-02-03T22:07:48.170Z,75.06
2023-02-03T22:10:31.504Z,75.45
2023-02-03T22:13:11.333Z,75.26
2023-02-03T22:15:54.611Z,75.45
2023-02-03T22:18:34.227Z,76.27
2023-02-03T22:21:23.814Z,75.28
2023-02-03T22:24:03.125Z,76.32
2023-02-03T22:26:43.366Z,74.92
2023-02-03T22:29:22.956Z,76.15
2023-02-03T22:32:17.716Z,76.06
2023-02-03T22:34:58.880Z,74.94
2023-02-03T22:37:36.357Z,75.64
2023-02-03T22:40:21.945Z,76.34
2023-02-03T22:42:59.768Z,76.15
2023-02-03T22:45:39.562Z,75.69
2023-02-03T22:48:18.181Z,75.95
2023-02-03T22:51:02.673Z,75.56
2023-02-03T22:53:43.322Z,75.45
2023-02-03T22:56:24.378Z,76.04
2023-02-03T22:59:05.703Z,75.22
2023-02-03T23:01:53.109Z,75.69
2023-02-03T23:04:32.930Z,75.96
2023-02-03T23:07:14.932Z,75.43
2023-02-03T23:09:53.979Z,76.06
2023-02-03T23:12:37.477Z,76.76
2023-02-03T23:15:16.921Z,75.83
2023-02-03T23:17:55.687Z,75.55
2023-02-03T23:20:39.240Z,76.66
2023-02-03T23:23:28.847Z,75.56
2023-02-03T23:26:06.065Z,76.51
2023-02-03T23:28:45.835Z,76.20
2023-02-03T23:31:32.055Z,76.24
2023-02-03T23:34:23.170Z,75.91
2023-02-03T23:36:51.966Z,76.21
2023-02-03T23:39:20.444Z,75.94
2023-02-03T23:41:49.119Z,75.79
2023-02-03T23:44:17.567Z,75.96
2023-02-03T23:46:46.256Z,75.27
2023-02-03T23:49:14.866Z,75.79
2023-02-03T23:51:43.573Z,75.92
2023-02-03T23:54:15.067Z,76.79
2023-02-03T23:56:43.689Z,76.24
2023-02-03T23:59:13.050Z,76.68
